الصفحة الرئيسية
METAR-TAF:

METAR-TAF

مطار :

مطار دنفر الدولي

دنفر, كولورادو, الولايات المتحدة

دائرة عرض: 39-49-58N, خط طول: 104-39-27W, ارتفاع: 1655 متر

مراقبة الطقس الحالي

تاريخ ووقت الإصدار 57 دقيقة قبل الساعة 20:53UTC
ريح 9 عقدة من الشمال/الشمال الغربي
درجة الحرارة 8°درجة مئوية
الرطوبة 18%
ضغط 1026 hPa
الرؤية: 16.1 كم
غيوم قليلة على ارتفاع 11000 قدم

METAR: KDEN 152053Z 33009KT 10SM FEW110 08/M15 A3031 RMK AO2 SLP275 T00831150 56009

زمن: 15:50 (21:50 UTC)

توقعات

تاريخ ووقت الإصدار 1ساعة و 11 دقيقة قبل الساعة 20:39UTC
التوقعات صالحة من15 الساعة 21 UTC إلى 16 الساعة 24 UTC
ريح 6 عقدة من الشمال/الشمال الشرقي
الرؤية: 10 كم
غيوم قليلة على ارتفاع 11000 قدم
من 16 الساعة 0200 UTC
ريح 8 عقدة من الجنوب/الجنوب الغربي
الرؤية: 10 كم
سماء صافية
من 16 الساعة 1500 UTC
ريح 5 عقدةمن اتجاهات متغيرة
الرؤية: 10 كم
سماء صافية
من 16 الساعة 1900 UTC
ريح 6 عقدة من الشمال
الرؤية: 10 كم
غيوم قليلة على ارتفاع 12000 قدم

TAF: KDEN 152039Z 1521/1624 02006KT P6SM FEW110 FM160200 20008KT P6SM SKC FM161500 VRB05KT P6SM SKC FM161900 01006KT P6SM FEW120

أرصاد الطقس والتوقعات من أكثر من 4000 مطار (تقارير الطقس للمطار METAR والتنبؤ بالطقس بالمطارTAF).

المحطات المتاحة هي النقط الصفراء والحمراء على الخريطة.

حرك المؤشر فوق النقطة لمعرفة اسم المحطة.

ثم انقر لمعرفة أرصاد وتوقعات الطقس.

لتغيير الخارطة: اضغط على الأزرار الخضراء مع رمز الصليب الأسود للتكبير. على الزر الأخضر مع شرطة للتصغير، أو على الأسهم الخضراء للخرائط المجاورة.


METAR-TAF: